Blue Star Naxos — SZUI — position and weather

sailwx.info

Track history (hours):
 
Tides and Currents Weather Stations Pressure Air Temp Water Temp Dewpoint Dewpoint Depression Visibility Wind Speed Wind Dir Waves Ship Positions

Blue Star Naxos

Last reported at 2014-Dec-19 06:33 UTC. Time now 2014-Dec-19 07:12 UTC.
Position N 37°13' E 025°30'.

Length 124 m; draft 5 m.

Type: Passenger vessel. MMSI: 239923000.

Date/timePositionNaut miles runAvg speedWind from/ knotsBaromVisibWave heightAir tempDewpointWater temp
2014-Dec-19 06:33N 37°13' E 025°30'1717.2
2014-Dec-19 05:33N 37°04' E 025°48'1110.8
2014-Dec-19 04:33N 36°57' E 025°59'2221.7
2014-Dec-19 03:33N 36°40' E 026°16'7 5.6
2014-Dec-19 02:21N 36°35' E 026°21'1721.7
2014-Dec-19 01:33N 36°49' E 026°09'1211.2
2014-Dec-19 00:30N 36°55' E 025°56'1918.1
2014-Dec-18 23:29N 37°09' E 025°41'1515.8
2014-Dec-18 22:32N 37°06' E 025°22'21 9.3
2014-Dec-18 20:19N 37°19' E 025°01'4416.1
2014-Dec-18 17:33N 37°32' E 024°08'2222.2
2014-Dec-18 16:33N 37°41' E 023°42'1616.3
2014-Dec-18 15:33N 37°57' E 023°38'0 0.0
2014-Dec-18 14:33N 37°57' E 023°38'0 0.0
2014-Dec-18 13:33N 37°57' E 023°38'9 8.7
2014-Dec-18 12:33N 37°49' E 023°41'4621.6
2014-Dec-18 10:26N 37°26' E 024°31'2122.6
2014-Dec-18 09:32N 37°14' E 024°53'1615.5
2014-Dec-18 08:30N 37°05' E 025°09'1111.3
2014-Dec-18 07:33N 37°06' E 025°22'10 9.8
2014-Dec-18 06:33N 37°13' E 025°31'1717.5
2014-Dec-18 05:34N 37°03' E 025°49'1211.7
2014-Dec-18 04:33N 36°57' E 026°02'2121.4
2014-Dec-18 03:33N 36°39' E 026°17'6 2.5
2014-Dec-18 01:17N 36°35' E 026°21'1621.5
2014-Dec-18 00:34N 36°48' E 026°11'1211.5
2014-Dec-17 23:33N 36°54' E 025°58'1515.3
2014-Dec-17 22:33N 37°06' E 025°46'1918.9
2014-Dec-17 21:33N 37°09' E 025°23'9 8.6
2014-Dec-17 20:33N 37°09' E 025°12'10 9.9
2014-Dec-17 19:33N 37°10' E 024°60'2222.4
2014-Dec-17 18:33N 37°24' E 024°37'2121.0
2014-Dec-17 17:33N 37°30' E 024°12'2222.0
2014-Dec-17 16:33N 37°37' E 023°46'2020.4
2014-Dec-17 15:34N 37°56' E 023°38'0 0.5
2014-Dec-17 14:33N 37°57' E 023°38'0 0.0
2014-Dec-17 13:32N 37°57' E 023°38'9 9.2
2014-Dec-17 12:33N 37°48' E 023°41'5321.6
2014-Dec-17 10:07N 37°22' E 024°39'1322.7
2014-Dec-17 09:33N 37°15' E 024°52'2612.8
2014-Dec-17 07:33N 37°06' E 025°22'6 5.9
2014-Dec-17 06:33N 37°01' E 025°19'1212.4
2014-Dec-17 05:33N 36°52' E 025°31'1010.4
2014-Dec-17 04:33N 36°54' E 025°43'7 2.0
2014-Dec-17 01:11N 36°50' E 025°50'1319.9
2014-Dec-17 00:33N 36°56' E 025°36'7 6.1
2014-Dec-16 23:27N 36°52' E 025°29'1516.9
2014-Dec-16 22:34N 37°06' E 025°21'9 8.9
2014-Dec-16 21:34N 37°09' E 025°11'7 6.4
2014-Dec-16 20:33N 37°13' E 025°04'1514.7
2014-Dec-16 19:33N 37°26' E 024°57'1818.1
2014-Dec-16 18:33N 37°31' E 024°35'2221.8
2014-Dec-16 17:34N 37°31' E 024°08'2221.8
2014-Dec-16 16:33N 37°40' E 023°42'1717.3
2014-Dec-16 15:33N 37°57' E 023°38'0 0.0
2014-Dec-16 13:17N 37°57' E 023°38'7 9.9
2014-Dec-16 12:33N 37°50' E 023°40'6722.3
2014-Dec-16 09:34N 37°15' E 024°52'1615.3
2014-Dec-16 08:29N 37°05' E 025°09'1111.6
2014-Dec-16 07:33N 37°06' E 025°22'1010.0
2014-Dec-16 06:33N 37°13' E 025°32'1818.0
2014-Dec-16 05:33N 37°02' E 025°50'1211.7
2014-Dec-16 04:32N 36°56' E 026°03'2121.2
2014-Dec-16 03:32N 36°39' E 026°18'1 0.4
2014-Dec-16 01:17N 36°40' E 026°17'1519.3
2014-Dec-16 00:31N 36°52' E 026°07'8 8.6
2014-Dec-15 23:33N 36°54' E 025°57'1818.0
2014-Dec-15 22:33N 37°08' E 025°43'1716.5
2014-Dec-15 21:33N 37°06' E 025°22'1110.7
2014-Dec-15 20:33N 37°07' E 025°09'7 7.2
2014-Dec-15 19:34N 37°08' E 024°60'2322.5
2014-Dec-15 18:33N 37°14' E 024°33'2222.3
2014-Dec-15 17:33N 37°25' E 024°08'2422.6
2014-Dec-15 16:31N 37°39' E 023°44'1819.2
2014-Dec-15 15:34N 37°57' E 023°38'0 0.0
2014-Dec-15 14:34N 37°57' E 023°38'0 0.0
2014-Dec-15 13:34N 37°57' E 023°38'6 6.4
2014-Dec-15 12:33N 37°50' E 023°40'2621.6
2014-Dec-15 11:22N 37°35' E 024°05'2222.9
2014-Dec-15 10:25N 37°27' E 024°31'2022.9
2014-Dec-15 09:33N 37°15' E 024°51'1715.3
2014-Dec-15 08:25N 37°05' E 025°09'1112.5
2014-Dec-15 07:34N 37°06' E 025°22'5 5.1
2014-Dec-15 06:33N 37°02' E 025°18'1414.4
2014-Dec-15 05:33N 36°52' E 025°31'10 9.8
2014-Dec-15 04:33N 36°54' E 025°43'5 1.3
2014-Dec-15 00:33N 36°51' E 025°48'1414.4
2014-Dec-14 23:34N 36°54' E 025°30'7 7.4
2014-Dec-14 22:33N 36°57' E 025°22'1211.8
2014-Dec-14 21:33N 37°08' E 025°20'1110.2
2014-Dec-14 20:31N 37°07' E 025°06'2016.0
2014-Dec-14 19:14N 37°26' E 024°57'1318.6
2014-Dec-14 18:33N 37°32' E 024°43'2322.7
2014-Dec-14 17:33N 37°31' E 024°14'2722.1
2014-Dec-14 16:20N 37°41' E 023°42'1620.6
2014-Dec-14 15:33N 37°56' E 023°38'0 0.4
2014-Dec-14 14:33N 37°57' E 023°38'0 0.0
2014-Dec-14 13:34N 37°57' E 023°38'7 7.2
2014-Dec-14 12:34N 37°50' E 023°40'5421.8
2014-Dec-14 10:05N 37°23' E 024°39'1222.6
2014-Dec-14 09:34N 37°15' E 024°51'1717.2
2014-Dec-14 08:33N 37°05' E 025°09'1110.8
2014-Dec-14 07:33N 37°06' E 025°22'6 6.2
2014-Dec-14 06:33N 37°01' E 025°19'1212.3
2014-Dec-14 05:33N 36°52' E 025°30'1110.8
2014-Dec-14 04:33N 36°54' E 025°44'8 5.4
2014-Dec-14 03:09N 36°50' E 025°52'0 0.0
2014-Dec-14 02:15N 36°50' E 025°52'0 0.0
2014-Dec-14 01:32N 36°50' E 025°52'0 0.0
2014-Dec-13 23:04N 36°50' E 025°52'0 0.0
2014-Dec-13 22:09N 36°50' E 025°52'0 0.0
2014-Dec-13 21:32N 36°50' E 025°52'0 0.0
2014-Dec-13 20:13N 36°50' E 025°52'0 0.0
2014-Dec-13 18:26N 36°50' E 025°52'0 0.0
2014-Dec-13 17:33N 36°50' E 025°52'0 0.0
2014-Dec-13 14:32N 36°50' E 025°52'0 0.0
2014-Dec-13 09:32N 36°50' E 025°52'0 0.0
2014-Dec-13 07:12N 36°50' E 025°52'0 0.0
2014-Dec-13 05:03N 36°50' E 025°52'0 0.0
2014-Dec-13 04:32N 36°50' E 025°52'0 0.0
2014-Dec-13 02:07N 36°50' E 025°52'0 0.0
2014-Dec-13 01:30N 36°50' E 025°52'0 0.0
2014-Dec-13 00:33N 36°50' E 025°52'1413.9
2014-Dec-12 23:34N 36°56' E 025°36'8 7.7
2014-Dec-12 22:33N 36°53' E 025°27'1413.5
2014-Dec-12 21:33N 37°06' E 025°22'1211.5
2014-Dec-12 20:30N 37°05' E 025°07'9 9.7
2014-Dec-12 19:33N 37°12' E 024°59'2222.1
2014-Dec-12 18:33N 37°26' E 024°38'2019.9
2014-Dec-12 17:33N 37°31' E 024°14'2422.2
2014-Dec-12 16:29N 37°39' E 023°46'1819.8
2014-Dec-12 15:34N 37°56' E 023°38'0 0.5
2014-Dec-12 14:33N 37°57' E 023°38'0 0.0
2014-Dec-12 13:33N 37°57' E 023°38'7 7.5
2014-Dec-12 12:33N 37°50' E 023°41'5421.7
2014-Dec-12 10:03N 37°22' E 024°40'1123.1
2014-Dec-12 09:33N 37°15' E 024°51'1716.3
2014-Dec-12 08:29N 37°05' E 025°09'1011.0
2014-Dec-12 07:33N 37°06' E 025°22'9 9.2
2014-Dec-12 06:33N 37°13' E 025°30'1818.1
2014-Dec-12 05:33N 37°03' E 025°49'1111.5
2014-Dec-12 04:33N 36°57' E 026°01'2221.7
2014-Dec-12 03:33N 36°39' E 026°17'2 2.3
2014-Dec-12 02:33N 36°41' E 026°16'2121.2
2014-Dec-12 01:33N 37°00' E 026°04'7 7.1
2014-Dec-12 00:32N 36°54' E 025°58'1515.4
2014-Dec-11 23:33N 37°06' E 025°47'1918.6
2014-Dec-11 22:33N 37°09' E 025°24'9 8.7
2014-Dec-11 21:34N 37°10' E 025°13'5 5.4
2014-Dec-11 20:33N 37°10' E 025°06'1815.0
2014-Dec-11 19:23N 37°26' E 024°57'1518.4
2014-Dec-11 18:34N 37°31' E 024°39'2221.8
2014-Dec-11 17:34N 37°32' E 024°12'2221.8
2014-Dec-11 16:33N 37°39' E 023°46'1818.6
2014-Dec-11 15:33N 37°57' E 023°38'0 0.0
2014-Dec-11 14:33N 37°57' E 023°38'0 0.0
2014-Dec-11 13:33N 37°57' E 023°38'8 8.3
2014-Dec-11 12:34N 37°49' E 023°41'4421.9
2014-Dec-11 10:33N 37°28' E 024°29'2322.9
2014-Dec-11 09:33N 37°14' E 024°52'1615.7
2014-Dec-11 08:33N 37°05' E 025°09'1010.4
2014-Dec-11 07:33N 37°06' E 025°22'7 7.4
2014-Dec-11 06:33N 37°12' E 025°28'1817.6
2014-Dec-11 05:33N 37°04' E 025°48'1212.3
2014-Dec-11 04:33N 36°57' E 026°01'2522.5
2014-Dec-11 03:27N 36°37' E 026°19'2 0.9
2014-Dec-11 01:13N 36°35' E 026°21'1421.7
2014-Dec-11 00:34N 36°47' E 026°12'1312.5
2014-Dec-10 23:33N 36°54' E 025°58'1616.3
2014-Dec-10 22:33N 37°07' E 025°45'1818.1
2014-Dec-10 21:33N 37°08' E 025°23'1110.2
2014-Dec-10 20:28N 37°07' E 025°09'8 8.4
2014-Dec-10 19:33N 37°10' E 025°00'2222.4
2014-Dec-10 18:33N 37°24' E 024°38'2120.7
2014-Dec-10 17:33N 37°31' E 024°13'2421.8
2014-Dec-10 16:27N 37°39' E 023°45'1819.9
2014-Dec-10 15:33N 37°56' E 023°38'0 0.5
2014-Dec-10 14:33N 37°57' E 023°38'0 0.0
2014-Dec-10 13:33N 37°57' E 023°38'5 5.5
2014-Dec-10 12:34N 37°51' E 023°39'4521.9
2014-Dec-10 10:29N 37°28' E 024°29'2223.2
2014-Dec-10 09:33N 37°16' E 024°51'1817.4
2014-Dec-10 08:32N 37°05' E 025°09'1111.0
2014-Dec-10 07:33N 37°06' E 025°22'6 5.6
2014-Dec-10 06:33N 37°01' E 025°19'1313.0
2014-Dec-10 05:33N 36°52' E 025°31'10 9.8
2014-Dec-10 04:33N 36°54' E 025°43'9 2.5
2014-Dec-10 01:05N 36°50' E 025°52'712.5
2014-Dec-10 00:33N 36°53' E 025°45'1111.2
2014-Dec-09 23:33N 36°52' E 025°31'1514.9
2014-Dec-09 22:34N 37°03' E 025°18'7 7.0
2014-Dec-09 21:34N 37°10' E 025°16'8 8.2
2014-Dec-09 20:33N 37°08' E 025°06'2017.3
2014-Dec-09 19:26N 37°26' E 024°57'1415.8
2014-Dec-09 18:33N 37°31' E 024°40'2221.9
2014-Dec-09 17:33N 37°31' E 024°13'2422.1
2014-Dec-09 16:29N 37°39' E 023°45'1819.8
2014-Dec-09 15:33N 37°56' E 023°38'0 0.5
2014-Dec-09 14:33N 37°57' E 023°38'0 0.0
2014-Dec-09 13:33N 37°57' E 023°38'8 7.5
2014-Dec-09 12:33N 37°49' E 023°41'4821.6
2014-Dec-09 10:21N 37°27' E 024°33'1822.7
2014-Dec-09 09:33N 37°16' E 024°51'1716.5
2014-Dec-09 08:30N 37°05' E 025°09'1111.1
2014-Dec-09 07:33N 37°06' E 025°22'  
Track history (hours):
 
Tides and Currents Weather Stations Pressure Air Temp Water Temp Dewpoint Dewpoint Depression Visibility Wind Speed Wind Dir Waves Ship Positions

Blue Star Naxos

Last reported at 2014-Dec-19 06:33 UTC. Time now 2014-Dec-19 07:12 UTC.
Position N 37°13' E 025°30'.

Length 124 m; draft 5 m.

Type: Passenger vessel. MMSI: 239923000.

Date/timePositionNaut miles runAvg speedWind from/ knotsBaromVisibWave heightAir tempDewpointWater temp
2014-Dec-19 06:33N 37°13' E 025°30'1717.2
2014-Dec-19 05:33N 37°04' E 025°48'1110.8
2014-Dec-19 04:33N 36°57' E 025°59'2221.7
2014-Dec-19 03:33N 36°40' E 026°16'7 5.6
2014-Dec-19 02:21N 36°35' E 026°21'1721.7
2014-Dec-19 01:33N 36°49' E 026°09'1211.2
2014-Dec-19 00:30N 36°55' E 025°56'1918.1
2014-Dec-18 23:29N 37°09' E 025°41'1515.8
2014-Dec-18 22:32N 37°06' E 025°22'21 9.3
2014-Dec-18 20:19N 37°19' E 025°01'4416.1
2014-Dec-18 17:33N 37°32' E 024°08'2222.2
2014-Dec-18 16:33N 37°41' E 023°42'1616.3
2014-Dec-18 15:33N 37°57' E 023°38'0 0.0
2014-Dec-18 14:33N 37°57' E 023°38'0 0.0
2014-Dec-18 13:33N 37°57' E 023°38'9 8.7
2014-Dec-18 12:33N 37°49' E 023°41'4621.6
2014-Dec-18 10:26N 37°26' E 024°31'2122.6
2014-Dec-18 09:32N 37°14' E 024°53'1615.5
2014-Dec-18 08:30N 37°05' E 025°09'1111.3
2014-Dec-18 07:33N 37°06' E 025°22'10 9.8
2014-Dec-18 06:33N 37°13' E 025°31'1717.5
2014-Dec-18 05:34N 37°03' E 025°49'1211.7
2014-Dec-18 04:33N 36°57' E 026°02'2121.4
2014-Dec-18 03:33N 36°39' E 026°17'6 2.5
2014-Dec-18 01:17N 36°35' E 026°21'1621.5
2014-Dec-18 00:34N 36°48' E 026°11'1211.5
2014-Dec-17 23:33N 36°54' E 025°58'1515.3
2014-Dec-17 22:33N 37°06' E 025°46'1918.9
2014-Dec-17 21:33N 37°09' E 025°23'9 8.6
2014-Dec-17 20:33N 37°09' E 025°12'10 9.9
2014-Dec-17 19:33N 37°10' E 024°60'2222.4
2014-Dec-17 18:33N 37°24' E 024°37'2121.0
2014-Dec-17 17:33N 37°30' E 024°12'2222.0
2014-Dec-17 16:33N 37°37' E 023°46'2020.4
2014-Dec-17 15:34N 37°56' E 023°38'0 0.5
2014-Dec-17 14:33N 37°57' E 023°38'0 0.0
2014-Dec-17 13:32N 37°57' E 023°38'9 9.2
2014-Dec-17 12:33N 37°48' E 023°41'5321.6
2014-Dec-17 10:07N 37°22' E 024°39'1322.7
2014-Dec-17 09:33N 37°15' E 024°52'2612.8
2014-Dec-17 07:33N 37°06' E 025°22'6 5.9
2014-Dec-17 06:33N 37°01' E 025°19'1212.4
2014-Dec-17 05:33N 36°52' E 025°31'1010.4
2014-Dec-17 04:33N 36°54' E 025°43'7 2.0
2014-Dec-17 01:11N 36°50' E 025°50'1319.9
2014-Dec-17 00:33N 36°56' E 025°36'7 6.1
2014-Dec-16 23:27N 36°52' E 025°29'1516.9
2014-Dec-16 22:34N 37°06' E 025°21'9 8.9
2014-Dec-16 21:34N 37°09' E 025°11'7 6.4
2014-Dec-16 20:33N 37°13' E 025°04'1514.7
2014-Dec-16 19:33N 37°26' E 024°57'1818.1
2014-Dec-16 18:33N 37°31' E 024°35'2221.8
2014-Dec-16 17:34N 37°31' E 024°08'2221.8
2014-Dec-16 16:33N 37°40' E 023°42'1717.3
2014-Dec-16 15:33N 37°57' E 023°38'0 0.0
2014-Dec-16 13:17N 37°57' E 023°38'7 9.9
2014-Dec-16 12:33N 37°50' E 023°40'6722.3
2014-Dec-16 09:34N 37°15' E 024°52'1615.3
2014-Dec-16 08:29N 37°05' E 025°09'1111.6
2014-Dec-16 07:33N 37°06' E 025°22'1010.0
2014-Dec-16 06:33N 37°13' E 025°32'1818.0
2014-Dec-16 05:33N 37°02' E 025°50'1211.7
2014-Dec-16 04:32N 36°56' E 026°03'2121.2
2014-Dec-16 03:32N 36°39' E 026°18'1 0.4
2014-Dec-16 01:17N 36°40' E 026°17'1519.3
2014-Dec-16 00:31N 36°52' E 026°07'8 8.6
2014-Dec-15 23:33N 36°54' E 025°57'1818.0
2014-Dec-15 22:33N 37°08' E 025°43'1716.5
2014-Dec-15 21:33N 37°06' E 025°22'1110.7
2014-Dec-15 20:33N 37°07' E 025°09'7 7.2
2014-Dec-15 19:34N 37°08' E 024°60'2322.5
2014-Dec-15 18:33N 37°14' E 024°33'2222.3
2014-Dec-15 17:33N 37°25' E 024°08'2422.6
2014-Dec-15 16:31N 37°39' E 023°44'1819.2
2014-Dec-15 15:34N 37°57' E 023°38'0 0.0
2014-Dec-15 14:34N 37°57' E 023°38'0 0.0
2014-Dec-15 13:34N 37°57' E 023°38'6 6.4
2014-Dec-15 12:33N 37°50' E 023°40'2621.6
2014-Dec-15 11:22N 37°35' E 024°05'2222.9
2014-Dec-15 10:25N 37°27' E 024°31'2022.9
2014-Dec-15 09:33N 37°15' E 024°51'1715.3
2014-Dec-15 08:25N 37°05' E 025°09'1112.5
2014-Dec-15 07:34N 37°06' E 025°22'5 5.1
2014-Dec-15 06:33N 37°02' E 025°18'1414.4
2014-Dec-15 05:33N 36°52' E 025°31'10 9.8
2014-Dec-15 04:33N 36°54' E 025°43'5 1.3
2014-Dec-15 00:33N 36°51' E 025°48'1414.4
2014-Dec-14 23:34N 36°54' E 025°30'7 7.4
2014-Dec-14 22:33N 36°57' E 025°22'1211.8
2014-Dec-14 21:33N 37°08' E 025°20'1110.2
2014-Dec-14 20:31N 37°07' E 025°06'2016.0
2014-Dec-14 19:14N 37°26' E 024°57'1318.6
2014-Dec-14 18:33N 37°32' E 024°43'2322.7
2014-Dec-14 17:33N 37°31' E 024°14'2722.1
2014-Dec-14 16:20N 37°41' E 023°42'1620.6
2014-Dec-14 15:33N 37°56' E 023°38'0 0.4
2014-Dec-14 14:33N 37°57' E 023°38'0 0.0
2014-Dec-14 13:34N 37°57' E 023°38'7 7.2
2014-Dec-14 12:34N 37°50' E 023°40'5421.8
2014-Dec-14 10:05N 37°23' E 024°39'1222.6
2014-Dec-14 09:34N 37°15' E 024°51'1717.2
2014-Dec-14 08:33N 37°05' E 025°09'1110.8
2014-Dec-14 07:33N 37°06' E 025°22'6 6.2
2014-Dec-14 06:33N 37°01' E 025°19'1212.3
2014-Dec-14 05:33N 36°52' E 025°30'1110.8
2014-Dec-14 04:33N 36°54' E 025°44'8 5.4
2014-Dec-14 03:09N 36°50' E 025°52'0 0.0
2014-Dec-14 02:15N 36°50' E 025°52'0 0.0
2014-Dec-14 01:32N 36°50' E 025°52'0 0.0
2014-Dec-13 23:04N 36°50' E 025°52'0 0.0
2014-Dec-13 22:09N 36°50' E 025°52'0 0.0
2014-Dec-13 21:32N 36°50' E 025°52'0 0.0
2014-Dec-13 20:13N 36°50' E 025°52'0 0.0
2014-Dec-13 18:26N 36°50' E 025°52'0 0.0
2014-Dec-13 17:33N 36°50' E 025°52'0 0.0
2014-Dec-13 14:32N 36°50' E 025°52'0 0.0
2014-Dec-13 09:32N 36°50' E 025°52'0 0.0
2014-Dec-13 07:12N 36°50' E 025°52'0 0.0
2014-Dec-13 05:03N 36°50' E 025°52'0 0.0
2014-Dec-13 04:32N 36°50' E 025°52'0 0.0
2014-Dec-13 02:07N 36°50' E 025°52'0 0.0
2014-Dec-13 01:30N 36°50' E 025°52'0 0.0
2014-Dec-13 00:33N 36°50' E 025°52'1413.9
2014-Dec-12 23:34N 36°56' E 025°36'8 7.7
2014-Dec-12 22:33N 36°53' E 025°27'1413.5
2014-Dec-12 21:33N 37°06' E 025°22'1211.5
2014-Dec-12 20:30N 37°05' E 025°07'9 9.7
2014-Dec-12 19:33N 37°12' E 024°59'2222.1
2014-Dec-12 18:33N 37°26' E 024°38'2019.9
2014-Dec-12 17:33N 37°31' E 024°14'2422.2
2014-Dec-12 16:29N 37°39' E 023°46'1819.8
2014-Dec-12 15:34N 37°56' E 023°38'0 0.5
2014-Dec-12 14:33N 37°57' E 023°38'0 0.0
2014-Dec-12 13:33N 37°57' E 023°38'7 7.5
2014-Dec-12 12:33N 37°50' E 023°41'5421.7
2014-Dec-12 10:03N 37°22' E 024°40'1123.1
2014-Dec-12 09:33N 37°15' E 024°51'1716.3
2014-Dec-12 08:29N 37°05' E 025°09'1011.0
2014-Dec-12 07:33N 37°06' E 025°22'9 9.2
2014-Dec-12 06:33N 37°13' E 025°30'1818.1
2014-Dec-12 05:33N 37°03' E 025°49'1111.5
2014-Dec-12 04:33N 36°57' E 026°01'2221.7
2014-Dec-12 03:33N 36°39' E 026°17'2 2.3
2014-Dec-12 02:33N 36°41' E 026°16'2121.2
2014-Dec-12 01:33N 37°00' E 026°04'7 7.1
2014-Dec-12 00:32N 36°54' E 025°58'1515.4
2014-Dec-11 23:33N 37°06' E 025°47'1918.6
2014-Dec-11 22:33N 37°09' E 025°24'9 8.7
2014-Dec-11 21:34N 37°10' E 025°13'5 5.4
2014-Dec-11 20:33N 37°10' E 025°06'1815.0
2014-Dec-11 19:23N 37°26' E 024°57'1518.4
2014-Dec-11 18:34N 37°31' E 024°39'2221.8
2014-Dec-11 17:34N 37°32' E 024°12'2221.8
2014-Dec-11 16:33N 37°39' E 023°46'1818.6
2014-Dec-11 15:33N 37°57' E 023°38'0 0.0
2014-Dec-11 14:33N 37°57' E 023°38'0 0.0
2014-Dec-11 13:33N 37°57' E 023°38'8 8.3
2014-Dec-11 12:34N 37°49' E 023°41'4421.9
2014-Dec-11 10:33N 37°28' E 024°29'2322.9
2014-Dec-11 09:33N 37°14' E 024°52'1615.7
2014-Dec-11 08:33N 37°05' E 025°09'1010.4
2014-Dec-11 07:33N 37°06' E 025°22'7 7.4
2014-Dec-11 06:33N 37°12' E 025°28'1817.6
2014-Dec-11 05:33N 37°04' E 025°48'1212.3
2014-Dec-11 04:33N 36°57' E 026°01'2522.5
2014-Dec-11 03:27N 36°37' E 026°19'2 0.9
2014-Dec-11 01:13N 36°35' E 026°21'1421.7
2014-Dec-11 00:34N 36°47' E 026°12'1312.5
2014-Dec-10 23:33N 36°54' E 025°58'1616.3
2014-Dec-10 22:33N 37°07' E 025°45'1818.1
2014-Dec-10 21:33N 37°08' E 025°23'1110.2
2014-Dec-10 20:28N 37°07' E 025°09'8 8.4
2014-Dec-10 19:33N 37°10' E 025°00'2222.4
2014-Dec-10 18:33N 37°24' E 024°38'2120.7
2014-Dec-10 17:33N 37°31' E 024°13'2421.8
2014-Dec-10 16:27N 37°39' E 023°45'1819.9
2014-Dec-10 15:33N 37°56' E 023°38'0 0.5
2014-Dec-10 14:33N 37°57' E 023°38'0 0.0
2014-Dec-10 13:33N 37°57' E 023°38'5 5.5
2014-Dec-10 12:34N 37°51' E 023°39'4521.9
2014-Dec-10 10:29N 37°28' E 024°29'2223.2
2014-Dec-10 09:33N 37°16' E 024°51'1817.4
2014-Dec-10 08:32N 37°05' E 025°09'1111.0
2014-Dec-10 07:33N 37°06' E 025°22'6 5.6
2014-Dec-10 06:33N 37°01' E 025°19'1313.0
2014-Dec-10 05:33N 36°52' E 025°31'10 9.8
2014-Dec-10 04:33N 36°54' E 025°43'9 2.5
2014-Dec-10 01:05N 36°50' E 025°52'712.5
2014-Dec-10 00:33N 36°53' E 025°45'1111.2
2014-Dec-09 23:33N 36°52' E 025°31'1514.9
2014-Dec-09 22:34N 37°03' E 025°18'7 7.0
2014-Dec-09 21:34N 37°10' E 025°16'8 8.2
2014-Dec-09 20:33N 37°08' E 025°06'2017.3
2014-Dec-09 19:26N 37°26' E 024°57'1415.8
2014-Dec-09 18:33N 37°31' E 024°40'2221.9
2014-Dec-09 17:33N 37°31' E 024°13'2422.1
2014-Dec-09 16:29N 37°39' E 023°45'1819.8
2014-Dec-09 15:33N 37°56' E 023°38'0 0.5
2014-Dec-09 14:33N 37°57' E 023°38'0 0.0
2014-Dec-09 13:33N 37°57' E 023°38'8 7.5
2014-Dec-09 12:33N 37°49' E 023°41'4821.6
2014-Dec-09 10:21N 37°27' E 024°33'1822.7
2014-Dec-09 09:33N 37°16' E 024°51'1716.5
2014-Dec-09 08:30N 37°05' E 025°09'1111.1
2014-Dec-09 07:33N 37°06' E 025°22'  

Dump ship's entire track history